Hodge, California
Current Conditions -  °F | °C
As of 3:50 AM on Monday 24 Nov 2014 (Local Time) from KDAG Reporting Station
Clear Clear  
Wind Chill:   Ceiling: Unl
Heat Index:   Visibility: 10mi
Dew Point: -13°   Wind: 9mph
Humidity: 25%   Direction: 270°W
Pressure: 30.26"   Gusts: NA
Location:  35.1476°N, 117.206°W
Report Text: KDAG 241150Z AUTO 27008KT 10SM CLR 06/M13 A3026 RMK AO2 SLP241 T00561133 10083 20039 55002
Loading
Personal Weather Stations






























Interactive Weather Map New forecast layout! Learn more

10-Day Weather Forecast

Advertisements
Track Severe Weather on mobile